EDMA/AGB METAR and TAF weather

Enter ICAO airport designator
Station Type Date Time Source
EDMA METAR 2018/01/19 17:20 UTC NOAA

EDMA 191720Z VRB02KT 9999 SCT046 BKN055 01/M01 Q1011


Station Type Date Time Source
EDMA Decoded METAR 2018/01/19 17:20 UTC NOAA

Augsburg, Germany (EDMA) 48-26N 010-56E 463M
Jan 19, 2018 - 12:20 PM EST / 2018.01.19 1720 UTC
Wind: Variable at 2 MPH (2 KT):0
Visibility: greater than 7 mile(s):0
Sky conditions: mostly cloudy
Temperature: 33 F (1 C)
Dew Point: 30 F (-1 C)
Relative Humidity: 86%
Pressure (altimeter): 29.85 in. Hg (1011 hPa)
ob: EDMA 191720Z VRB02KT 9999 SCT046 BKN055 01/M01 Q1011
cycle: 17

Station Type Date Time Source
EDMA TAF 2010/02/22 13:50 UTC NOAA

METAR EDMA 221350Z 23006KT CAVOK 10/02 Q0996


Example: see airport list